Time;durP1;ratioP1;P1;durP2;ratioP2;P2;SDS_P1;SDS_P2;PMS_P1;PMS_P2;Temp;Humidity;BMP_temperature;BMP_pressure;BME280_temperature;BME280_humidity;BME280_pressure;Samples;Min_cycle;Max_cycle;Signal;HPM_P1;HPM_P2
2022/08/27 00:03:25;;;;;;;1.98;0.88;;;;;;;;;;10410865;28;20103;-88
2022/08/27 00:08:30;;;;;;;3.42;1.05;;;;;;;;;;10418058;28;20057;-88
2022/08/27 00:13:35;;;;;;;2.90;1.23;;;;;;;;;;10427464;28;20041;-88
2022/08/27 00:18:39;;;;;;;1.93;0.77;;;;;;;;;;10409748;28;20049;-88
2022/08/27 00:23:45;;;;;;;1.55;0.70;;;;;;;;;;10426449;28;20095;-88
2022/08/27 00:28:49;;;;;;;4.40;1.63;;;;;;;;;;10408811;28;20140;-89
2022/08/27 00:33:52;;;;;;;2.63;1.13;;;;;;;;;;10408280;28;20074;-88
2022/08/27 00:38:57;;;;;;;2.22;1.08;;;;;;;;;;10407287;28;20042;-88
2022/08/27 00:44:02;;;;;;;2.75;1.08;;;;;;;;;;10416327;28;20096;-86
2022/08/27 00:49:08;;;;;;;1.77;0.98;;;;;;;;;;10408769;28;20519;-88
2022/08/27 00:54:13;;;;;;;3.45;1.75;;;;;;;;;;10407314;28;20060;-88
2022/08/27 00:59:19;;;;;;;2.60;1.48;;;;;;;;;;10405554;28;20103;-87
2022/08/27 01:04:23;;;;;;;2.28;1.40;;;;;;;;;;10407099;28;20050;-88
2022/08/27 01:09:29;;;;;;;5.60;2.40;;;;;;;;;;10415153;28;20107;-88
2022/08/27 01:14:32;;;;;;;3.78;1.45;;;;;;;;;;10411954;28;20086;-87
2022/08/27 01:19:38;;;;;;;2.15;1.05;;;;;;;;;;10410315;28;20672;-87
2022/08/27 01:24:46;;;;;;;2.47;1.20;;;;;;;;;;10398895;28;20061;-87
2022/08/27 01:29:50;;;;;;;2.15;0.98;;;;;;;;;;10393915;28;20037;-87
2022/08/27 01:34:54;;;;;;;1.58;0.95;;;;;;;;;;10422000;28;20049;-86
2022/08/27 01:39:59;;;;;;;3.63;1.90;;;;;;;;;;10397319;28;20095;-87
2022/08/27 01:45:06;;;;;;;2.08;1.15;;;;;;;;;;10388098;28;20465;-88
2022/08/27 01:50:12;;;;;;;3.95;1.17;;;;;;;;;;10398160;28;20046;-89
2022/08/27 01:55:19;;;;;;;2.10;1.00;;;;;;;;;;10392657;28;20100;-87
2022/08/27 02:00:25;;;;;;;2.40;1.08;;;;;;;;;;10385992;28;20061;-87
2022/08/27 02:05:29;;;;;;;;;;;;;;;;;;10392429;28;20041;-87
2022/08/27 02:10:37;;;;;;;3.78;1.50;;;;;;;;;;10403655;28;19971;-87
2022/08/27 02:15:42;;;;;;;2.60;1.48;;;;;;;;;;10392016;28;20101;-87
2022/08/27 02:20:47;;;;;;;3.15;1.30;;;;;;;;;;10395406;28;20056;-87
2022/08/27 02:25:52;;;;;;;3.08;1.60;;;;;;;;;;10420861;28;20104;-87
2022/08/27 02:30:55;;;;;;;3.00;1.38;;;;;;;;;;10419190;28;20042;-87
2022/08/27 02:35:59;;;;;;;3.58;1.38;;;;;;;;;;10403277;28;20791;-87
2022/08/27 02:41:04;;;;;;;2.72;1.73;;;;;;;;;;10396573;28;20088;-87
2022/08/27 02:46:08;;;;;;;3.80;1.48;;;;;;;;;;10394913;28;20083;-87
2022/08/27 02:51:11;;;;;;;2.22;1.60;;;;;;;;;;10403339;28;20406;-88
2022/08/27 02:56:16;;;;;;;2.90;1.73;;;;;;;;;;10399807;28;20087;-87
2022/08/27 03:01:20;;;;;;;4.03;1.85;;;;;;;;;;10419721;28;20045;-88
2022/08/27 03:06:23;;;;;;;3.58;1.70;;;;;;;;;;10394977;28;20053;-87
2022/08/27 03:11:28;;;;;;;3.60;2.17;;;;;;;;;;10397008;28;20052;-87
2022/08/27 03:16:34;;;;;;;4.18;2.50;;;;;;;;;;10387173;28;20046;-87
2022/08/27 03:21:37;;;;;;;;;;;;;;;;;;10395957;28;20038;-88
2022/08/27 03:26:43;;;;;;;2.35;1.70;;;;;;;;;;10395463;28;19971;-87
2022/08/27 03:31:47;;;;;;;3.55;2.08;;;;;;;;;;10402471;28;20381;-87
2022/08/27 03:36:51;;;;;;;4.93;3.38;;;;;;;;;;10394096;28;20912;-87
2022/08/27 03:41:56;;;;;;;5.03;2.33;;;;;;;;;;10402785;28;20095;-87
2022/08/27 03:47:00;;;;;;;3.28;2.22;;;;;;;;;;10402834;28;20053;-88
2022/08/27 03:52:04;;;;;;;3.53;2.58;;;;;;;;;;10403462;28;20133;-87
2022/08/27 03:57:09;;;;;;;3.45;2.40;;;;;;;;;;10403649;28;20049;-87
2022/08/27 04:02:15;;;;;;;3.13;2.45;;;;;;;;;;10410032;28;20089;-87
2022/08/27 04:07:18;;;;;;;6.15;2.97;;;;;;;;;;10403943;28;20099;-87
2022/08/27 04:12:23;;;;;;;4.45;2.78;;;;;;;;;;10402451;28;20450;-87
2022/08/27 04:17:26;;;;;;;3.35;2.63;;;;;;;;;;10402141;28;20045;-87
2022/08/27 04:22:30;;;;;;;3.83;2.45;;;;;;;;;;10402114;28;20037;-87
2022/08/27 04:27:35;;;;;;;4.15;2.45;;;;;;;;;;10411453;28;20116;-88
2022/08/27 04:32:38;;;;;;;3.80;2.20;;;;;;;;;;10401885;28;20054;-87
2022/08/27 04:37:42;;;;;;;6.78;3.92;;;;;;;;;;10408619;28;20054;-87
2022/08/27 04:42:47;;;;;;;6.38;4.07;;;;;;;;;;10409274;28;20052;-87
2022/08/27 04:47:50;;;;;;;2.97;2.67;;;;;;;;;;10410464;28;20050;-87
2022/08/27 04:52:54;;;;;;;3.88;2.25;;;;;;;;;;10409080;28;20041;-86
2022/08/27 04:57:59;;;;;;;3.67;2.72;;;;;;;;;;10408944;28;20550;-88
2022/08/27 05:03:02;;;;;;;4.82;3.58;;;;;;;;;;10410433;28;20041;-87
2022/08/27 05:08:06;;;;;;;6.72;4.25;;;;;;;;;;10399356;28;20458;-88
2022/08/27 05:13:11;;;;;;;5.07;3.65;;;;;;;;;;10415621;28;20038;-88
2022/08/27 05:18:15;;;;;;;4.32;2.75;;;;;;;;;;10432510;28;20352;-87
2022/08/27 05:23:20;;;;;;;4.55;2.65;;;;;;;;;;10407803;28;20045;-87
2022/08/27 05:28:27;;;;;;;7.65;5.47;;;;;;;;;;10424403;28;20515;-87
2022/08/27 05:33:30;;;;;;;7.53;4.38;;;;;;;;;;10407775;28;20077;-88
2022/08/27 05:38:35;;;;;;;6.18;4.63;;;;;;;;;;10404145;28;20388;-88
2022/08/27 05:43:41;;;;;;;5.18;3.50;;;;;;;;;;10414866;28;20500;-88
2022/08/27 05:48:46;;;;;;;5.50;3.90;;;;;;;;;;10423520;28;20042;-87
2022/08/27 05:53:49;;;;;;;4.85;3.10;;;;;;;;;;10423170;28;20049;-87
2022/08/27 06:04:30;;;;;;;6.05;3.63;;;;;;;;;;10355587;28;20543;-87
2022/08/27 06:09:33;;;;;;;5.47;3.05;;;;;;;;;;10385053;28;20049;-87
2022/08/27 06:14:39;;;;;;;3.78;2.33;;;;;;;;;;10405577;28;20084;-87
2022/08/27 06:19:44;;;;;;;3.70;2.57;;;;;;;;;;10422696;28;20049;-87
2022/08/27 06:24:52;;;;;;;3.13;2.60;;;;;;;;;;10415006;28;20523;-87
2022/08/27 06:29:57;;;;;;;3.75;2.63;;;;;;;;;;10405363;28;20284;-87
2022/08/27 06:35:02;;;;;;;;;;;;;;;;;;10404884;28;20430;-87
2022/08/27 06:40:08;;;;;;;4.80;3.30;;;;;;;;;;10397865;28;19921;-87
2022/08/27 06:45:13;;;;;;;4.32;2.65;;;;;;;;;;10404859;28;20041;-87
2022/08/27 06:50:20;;;;;;;3.60;2.42;;;;;;;;;;10406028;28;20411;-87
2022/08/27 06:55:26;;;;;;;3.67;2.67;;;;;;;;;;10405484;28;20499;-88
2022/08/27 07:00:31;;;;;;;3.28;2.35;;;;;;;;;;10419365;28;20415;-87
2022/08/27 07:05:36;;;;;;;3.77;2.33;;;;;;;;;;10400673;28;20052;-87
2022/08/27 07:10:44;;;;;;;3.33;2.72;;;;;;;;;;10399995;28;20059;-87
2022/08/27 07:15:49;;;;;;;4.32;2.83;;;;;;;;;;10418874;28;20034;-87
2022/08/27 07:20:55;;;;;;;3.27;2.20;;;;;;;;;;10400247;28;20120;-86
2022/08/27 07:25:59;;;;;;;5.18;3.35;;;;;;;;;;10400304;28;20076;-87
2022/08/27 07:31:05;;;;;;;3.35;2.35;;;;;;;;;;10408917;28;20041;-88
2022/08/27 07:36:09;;;;;;;4.10;3.05;;;;;;;;;;10399791;28;20069;-85
2022/08/27 07:41:13;;;;;;;4.35;2.85;;;;;;;;;;10416233;28;20045;-86
2022/08/27 07:46:18;;;;;;;3.80;2.75;;;;;;;;;;10400359;28;20108;-86
2022/08/27 07:51:22;;;;;;;3.83;2.65;;;;;;;;;;10433861;28;20057;-86
2022/08/27 07:56:26;;;;;;;3.20;2.00;;;;;;;;;;10400352;28;20091;-86
2022/08/27 08:01:31;;;;;;;3.05;2.10;;;;;;;;;;10400346;28;20045;-87
2022/08/27 08:06:37;;;;;;;3.03;2.13;;;;;;;;;;10400537;28;20049;-86
2022/08/27 08:11:41;;;;;;;2.78;1.95;;;;;;;;;;10402890;28;20049;-87
2022/08/27 08:16:46;;;;;;;3.83;2.85;;;;;;;;;;10415725;28;20053;-86
2022/08/27 08:21:50;;;;;;;3.23;2.23;;;;;;;;;;10415897;28;20503;-87
2022/08/27 08:26:56;;;;;;;2.53;1.92;;;;;;;;;;10407881;28;20042;-87
2022/08/27 08:32:01;;;;;;;3.80;2.70;;;;;;;;;;10423733;28;20123;-87
2022/08/27 08:37:05;;;;;;;5.78;4.20;;;;;;;;;;10416344;28;20487;-87
2022/08/27 08:42:24;;;;;;;4.03;3.13;;;;;;;;;;10402800;28;20061;-86
2022/08/27 08:47:42;;;;;;;4.70;3.13;;;;;;;;;;10428120;28;20049;-88
2022/08/27 08:52:50;;;;;;;2.72;1.80;;;;;;;;;;10415188;28;20119;-87
2022/08/27 08:58:00;;;;;;;7.53;4.60;;;;;;;;;;10411289;28;20068;-86
2022/08/27 09:03:11;;;;;;;2.47;1.75;;;;;;;;;;10416753;28;20111;-86
2022/08/27 09:08:22;;;;;;;5.03;2.88;;;;;;;;;;10415325;28;20053;-87
2022/08/27 09:13:49;;;;;;;5.03;3.55;;;;;;;;;;10407176;28;20044;-88
2022/08/27 09:18:54;;;;;;;4.55;2.85;;;;;;;;;;10404642;28;20045;-87
2022/08/27 09:24:05;;;;;;;4.70;3.25;;;;;;;;;;10404168;28;20129;-87
2022/08/27 09:29:18;;;;;;;2.13;1.38;;;;;;;;;;10396730;28;20068;-87
2022/08/27 09:34:24;;;;;;;2.55;1.88;;;;;;;;;;10404612;28;20495;-86
2022/08/27 09:39:33;;;;;;;6.43;3.78;;;;;;;;;;10420553;28;20618;-87
2022/08/27 09:44:46;;;;;;;7.50;3.10;;;;;;;;;;10403567;28;20470;-87
2022/08/27 09:50:09;;;;;;;5.45;1.75;;;;;;;;;;10411793;28;20041;-87
2022/08/27 09:55:13;;;;;;;6.20;2.55;;;;;;;;;;10412796;28;20041;-87
2022/08/27 10:00:17;;;;;;;2.83;1.98;;;;;;;;;;10420832;28;20045;-86
2022/08/27 10:05:29;;;;;;;3.25;2.28;;;;;;;;;;10401830;28;20515;-86
2022/08/27 10:10:49;;;;;;;2.72;2.10;;;;;;;;;;10402102;28;20103;-87
2022/08/27 10:16:11;;;;;;;3.28;1.80;;;;;;;;;;10426821;28;20099;-88
2022/08/27 10:21:22;;;;;;;5.43;2.70;;;;;;;;;;10394224;28;20041;-87
2022/08/27 10:26:30;;;;;;;3.10;2.55;;;;;;;;;;10410507;28;20042;-86
2022/08/27 10:31:44;;;;;;;3.35;2.33;;;;;;;;;;10410323;28;20053;-87
2022/08/27 10:36:56;;;;;;;3.00;2.05;;;;;;;;;;10402866;28;20140;-88
2022/08/27 10:42:09;;;;;;;5.07;2.67;;;;;;;;;;10396111;28;20096;-87
2022/08/27 10:47:25;;;;;;;9.75;5.70;;;;;;;;;;10386818;28;20100;-86
2022/08/27 10:52:35;;;;;;;5.60;4.50;;;;;;;;;;10402145;28;20033;-87
2022/08/27 10:57:58;;;;;;;9.25;6.38;;;;;;;;;;10400987;28;20084;-87
2022/08/27 11:03:08;;;;;;;9.13;7.13;;;;;;;;;;10400471;28;20099;-87
2022/08/27 11:08:19;;;;;;;7.70;5.15;;;;;;;;;;10395847;28;20053;-86
2022/08/27 11:13:31;;;;;;;8.70;5.53;;;;;;;;;;10401004;28;20041;-86
2022/08/27 11:18:39;;;;;;;6.40;4.88;;;;;;;;;;10405928;28;20075;-87
2022/08/27 11:23:48;;;;;;;14.65;9.50;;;;;;;;;;10404138;28;20482;-87
2022/08/27 11:28:56;;;;;;;6.47;4.68;;;;;;;;;;10400373;28;20045;-88
2022/08/27 11:34:05;;;;;;;7.93;5.72;;;;;;;;;;10398635;28;20138;-87
2022/08/27 11:39:24;;;;;;;9.18;6.95;;;;;;;;;;10392404;28;20033;-87
2022/08/27 11:44:28;;;;;;;13.07;7.82;;;;;;;;;;10403636;28;20125;-88
2022/08/27 11:49:41;;;;;;;7.20;5.13;;;;;;;;;;10424640;28;20099;-87
2022/08/27 11:54:48;;;;;;;8.38;6.57;;;;;;;;;;10414600;28;20059;-87
2022/08/27 11:59:52;;;;;;;10.10;7.38;;;;;;;;;;10411344;28;20053;-87
2022/08/27 12:05:07;;;;;;;8.27;5.43;;;;;;;;;;10409804;28;20034;-86
2022/08/27 12:10:34;;;;;;;13.15;8.20;;;;;;;;;;10417374;28;20107;-87
2022/08/27 12:15:50;;;;;;;10.00;7.38;;;;;;;;;;10433804;28;20706;-88
2022/08/27 12:21:03;;;;;;;13.55;9.60;;;;;;;;;;10417503;28;20107;-87
2022/08/27 12:26:20;;;;;;;9.98;7.10;;;;;;;;;;10415165;28;20068;-88
2022/08/27 12:31:24;;;;;;;10.68;7.18;;;;;;;;;;10430455;28;20053;-86
2022/08/27 12:36:32;;;;;;;6.07;4.85;;;;;;;;;;10416893;28;20418;-87
2022/08/27 12:41:38;;;;;;;10.32;7.03;;;;;;;;;;10427790;28;20069;-86
2022/08/27 12:46:47;;;;;;;10.32;8.82;;;;;;;;;;10411353;28;20091;-87
2022/08/27 12:51:52;;;;;;;6.82;5.32;;;;;;;;;;10407525;28;20052;-87
2022/08/27 12:57:04;;;;;;;4.68;4.28;;;;;;;;;;10406773;28;20064;-87
2022/08/27 13:02:23;;;;;;;8.18;7.18;;;;;;;;;;10400286;28;20523;-87
2022/08/27 13:07:27;;;;;;;6.13;4.95;;;;;;;;;;10416521;28;20181;-88
2022/08/27 13:12:32;;;;;;;8.93;6.50;;;;;;;;;;10426583;28;20178;-88
2022/08/27 13:17:38;;;;;;;7.30;5.75;;;;;;;;;;10423855;28;20053;-88
2022/08/27 13:22:43;;;;;;;4.82;4.15;;;;;;;;;;10418520;28;20099;-89
2022/08/27 13:27:53;;;;;;;4.80;3.67;;;;;;;;;;10410172;28;20638;-88
2022/08/27 13:32:57;;;;;;;7.65;6.55;;;;;;;;;;10426770;28;20044;-89
2022/08/27 13:38:02;;;;;;;9.07;7.32;;;;;;;;;;10447398;28;20048;-89
2022/08/27 13:43:10;;;;;;;8.13;6.50;;;;;;;;;;10434217;28;20113;-88
2022/08/27 13:48:20;;;;;;;8.70;7.30;;;;;;;;;;10441691;28;20099;-89
2022/08/27 13:58:50;;;;;;;7.30;5.83;;;;;;;;;;10423665;28;20320;-88
2022/08/27 14:03:59;;;;;;;9.18;7.80;;;;;;;;;;10415624;28;20065;-89
2022/08/27 14:09:11;;;;;;;15.18;11.15;;;;;;;;;;10415519;28;20089;-89
2022/08/27 14:14:18;;;;;;;13.23;11.63;;;;;;;;;;10415489;28;20091;-89
2022/08/27 14:19:26;;;;;;;7.65;5.32;;;;;;;;;;10407741;28;20049;-89
2022/08/27 14:24:30;;;;;;;8.68;6.93;;;;;;;;;;10442165;28;20502;-89
2022/08/27 14:29:35;;;;;;;6.63;5.60;;;;;;;;;;10406283;28;20052;-89
2022/08/27 14:34:38;;;;;;;10.60;8.77;;;;;;;;;;10445327;28;20045;-90
2022/08/27 14:39:42;;;;;;;8.00;5.75;;;;;;;;;;10422959;28;20052;-89
2022/08/27 14:44:47;;;;;;;11.48;10.27;;;;;;;;;;10412368;28;20095;-90
2022/08/27 14:49:51;;;;;;;9.35;6.38;;;;;;;;;;10404407;28;20519;-89
2022/08/27 14:54:54;;;;;;;7.40;6.68;;;;;;;;;;10429377;28;20042;-89
2022/08/27 14:59:59;;;;;;;5.03;4.53;;;;;;;;;;10434779;28;20045;-89
2022/08/27 15:05:02;;;;;;;6.23;5.63;;;;;;;;;;10437510;28;20075;-90
2022/08/27 15:10:07;;;;;;;6.63;4.38;;;;;;;;;;10407482;28;20045;-89
2022/08/27 15:15:14;;;;;;;4.13;3.72;;;;;;;;;;10378971;28;20057;-89
2022/08/27 15:20:18;;;;;;;3.22;2.92;;;;;;;;;;10418096;28;20107;-89
2022/08/27 15:25:22;;;;;;;3.20;2.90;;;;;;;;;;10414903;28;20069;-89
2022/08/27 15:30:28;;;;;;;2.55;2.10;;;;;;;;;;10441866;28;20045;-90
2022/08/27 15:35:33;;;;;;;5.50;4.25;;;;;;;;;;10419617;28;20052;-89
2022/08/27 15:40:36;;;;;;;3.88;3.30;;;;;;;;;;10410123;28;20045;-90
2022/08/27 15:45:41;;;;;;;5.05;4.32;;;;;;;;;;10427531;28;20045;-89
2022/08/27 15:50:45;;;;;;;4.87;4.37;;;;;;;;;;10445065;28;20069;-89
2022/08/27 15:55:48;;;;;;;4.18;3.53;;;;;;;;;;10411473;28;20058;-92
2022/08/27 16:00:53;;;;;;;5.55;3.92;;;;;;;;;;10411778;28;20049;-90
2022/08/27 16:05:57;;;;;;;6.20;4.55;;;;;;;;;;10412054;28;20557;-90
2022/08/27 16:11:00;;;;;;;2.85;2.60;;;;;;;;;;10421348;28;20037;-89
2022/08/27 16:16:06;;;;;;;4.20;2.70;;;;;;;;;;10425261;28;20403;-89
2022/08/27 16:21:10;;;;;;;4.15;3.10;;;;;;;;;;10410314;28;20054;-90
2022/08/27 16:26:14;;;;;;;2.90;2.65;;;;;;;;;;10422670;28;20090;-91
2022/08/27 16:31:20;;;;;;;5.72;3.75;;;;;;;;;;10373782;28;20104;-90
2022/08/27 16:36:24;;;;;;;4.47;3.20;;;;;;;;;;10415602;28;20423;-90
2022/08/27 16:41:28;;;;;;;4.10;3.40;;;;;;;;;;10439781;28;20041;-90
2022/08/27 16:46:33;;;;;;;5.00;3.65;;;;;;;;;;10399942;28;20085;-89
2022/08/27 16:51:37;;;;;;;3.80;2.90;;;;;;;;;;10430348;28;20671;-88
2022/08/27 16:56:40;;;;;;;3.15;2.08;;;;;;;;;;10435143;28;20045;-89
2022/08/27 17:01:49;;;;;;;2.65;1.85;;;;;;;;;;10433842;28;20076;-91
2022/08/27 17:06:53;;;;;;;5.15;3.40;;;;;;;;;;10432840;28;20072;-92
2022/08/27 17:12:04;;;;;;;3.90;2.60;;;;;;;;;;10417204;28;20132;-89
2022/08/27 17:17:09;;;;;;;3.30;1.92;;;;;;;;;;10415383;28;20103;-89
2022/08/27 17:22:13;;;;;;;6.18;3.22;;;;;;;;;;10434152;28;20095;-89
2022/08/27 17:27:19;;;;;;;3.72;1.98;;;;;;;;;;10425789;28;20053;-91
2022/08/27 17:32:23;;;;;;;3.67;2.38;;;;;;;;;;10452126;28;20049;-90
2022/08/27 17:37:27;;;;;;;4.45;2.42;;;;;;;;;;10439389;28;20075;-90
2022/08/27 17:42:31;;;;;;;3.63;1.63;;;;;;;;;;10427962;28;20049;-90
2022/08/27 17:47:36;;;;;;;2.33;1.58;;;;;;;;;;10414761;28;20120;-90
2022/08/27 17:52:39;;;;;;;2.50;1.40;;;;;;;;;;10432420;28;20041;-89
2022/08/27 17:57:44;;;;;;;2.08;1.77;;;;;;;;;;10399122;28;20045;-89
2022/08/27 18:02:50;;;;;;;3.35;1.40;;;;;;;;;;10414950;28;20056;-89
2022/08/27 18:07:55;;;;;;;2.50;1.23;;;;;;;;;;10414279;28;20073;-89
2022/08/27 18:12:59;;;;;;;3.70;1.33;;;;;;;;;;10415129;28;20107;-91
2022/08/27 18:18:05;;;;;;;5.25;1.90;;;;;;;;;;10429843;28;20456;-89
2022/08/27 18:23:09;;;;;;;1.77;1.45;;;;;;;;;;10414799;28;20057;-89
2022/08/27 18:28:13;;;;;;;2.92;1.52;;;;;;;;;;10411338;28;20092;-89
2022/08/27 18:33:18;;;;;;;2.72;1.23;;;;;;;;;;10373407;28;20046;-89
2022/08/27 18:38:21;;;;;;;1.65;1.27;;;;;;;;;;10408326;28;20155;-89
2022/08/27 18:43:31;;;;;;;1.95;1.33;;;;;;;;;;10413600;28;20053;-89
2022/08/27 18:48:36;;;;;;;2.42;1.40;;;;;;;;;;10407698;28;20724;-89
2022/08/27 18:53:41;;;;;;;1.97;1.50;;;;;;;;;;10372581;28;20096;-91
2022/08/27 18:58:45;;;;;;;2.45;1.60;;;;;;;;;;10386641;28;20050;-89
2022/08/27 19:03:51;;;;;;;2.50;1.58;;;;;;;;;;10410988;28;20053;-90
2022/08/27 19:08:55;;;;;;;2.38;1.35;;;;;;;;;;10432158;28;20042;-89
2022/08/27 19:13:58;;;;;;;1.90;1.55;;;;;;;;;;10412577;28;20454;-89
2022/08/27 19:19:04;;;;;;;2.00;1.63;;;;;;;;;;10435554;28;20064;-89
2022/08/27 19:24:08;;;;;;;2.58;1.55;;;;;;;;;;10421387;28;20045;-89
2022/08/27 19:29:11;;;;;;;4.10;1.90;;;;;;;;;;10427208;28;20042;-89
2022/08/27 19:34:16;;;;;;;3.47;1.98;;;;;;;;;;10413627;28;20046;-88
2022/08/27 19:39:20;;;;;;;2.55;1.65;;;;;;;;;;10411610;28;20053;-89
2022/08/27 19:44:23;;;;;;;2.90;1.98;;;;;;;;;;10411663;28;20057;-89
2022/08/27 19:49:28;;;;;;;3.40;1.92;;;;;;;;;;10413392;28;20037;-89
2022/08/27 19:54:31;;;;;;;3.50;2.00;;;;;;;;;;10412302;28;20454;-89
2022/08/27 19:59:35;;;;;;;3.03;2.22;;;;;;;;;;10421553;28;20049;-90
2022/08/27 20:04:40;;;;;;;4.43;2.00;;;;;;;;;;10413274;28;20100;-89
2022/08/27 20:09:50;;;;;;;1.98;1.85;;;;;;;;;;10407866;28;20051;-89
2022/08/27 20:14:53;;;;;;;3.60;2.03;;;;;;;;;;10458132;28;20053;-89
2022/08/27 20:19:58;;;;;;;2.25;1.70;;;;;;;;;;10435441;28;20045;-89
2022/08/27 20:25:02;;;;;;;3.03;1.80;;;;;;;;;;10469397;28;20040;-90
2022/08/27 20:30:07;;;;;;;3.75;2.03;;;;;;;;;;10436014;28;20099;-89
2022/08/27 20:35:12;;;;;;;3.20;1.83;;;;;;;;;;10436036;28;20056;-89
2022/08/27 20:40:19;;;;;;;3.25;1.77;;;;;;;;;;10435366;28;20661;-89
2022/08/27 20:45:23;;;;;;;2.08;1.67;;;;;;;;;;10418857;28;20041;-89
2022/08/27 20:50:27;;;;;;;2.05;1.60;;;;;;;;;;10418425;28;20053;-89
2022/08/27 20:55:31;;;;;;;1.70;1.58;;;;;;;;;;10421195;28;20072;-91
2022/08/27 21:00:36;;;;;;;1.98;1.70;;;;;;;;;;10458333;28;20037;-89
2022/08/27 21:05:45;;;;;;;2.25;1.60;;;;;;;;;;10429980;28;20095;-89
2022/08/27 21:10:51;;;;;;;3.05;1.77;;;;;;;;;;10418301;28;20518;-89
2022/08/27 21:15:55;;;;;;;3.30;1.90;;;;;;;;;;10419488;28;20054;-89
2022/08/27 21:21:00;;;;;;;3.90;1.58;;;;;;;;;;10444270;28;20040;-89
2022/08/27 21:26:06;;;;;;;1.83;1.52;;;;;;;;;;10442791;28;20037;-89
2022/08/27 21:31:09;;;;;;;3.05;1.70;;;;;;;;;;10443305;28;20041;-89
2022/08/27 21:36:14;;;;;;;2.78;1.75;;;;;;;;;;10441912;28;20041;-89
2022/08/27 21:41:18;;;;;;;2.10;1.55;;;;;;;;;;10441896;28;20037;-89
2022/08/27 21:46:21;;;;;;;5.53;2.00;;;;;;;;;;10457952;28;20049;-89
2022/08/27 21:51:26;;;;;;;1.95;1.45;;;;;;;;;;10469037;28;20436;-89
2022/08/27 21:56:31;;;;;;;1.75;1.60;;;;;;;;;;10470549;28;20053;-89
2022/08/27 22:01:34;;;;;;;2.55;1.50;;;;;;;;;;10441154;28;20688;-89
2022/08/27 22:06:39;;;;;;;3.67;2.00;;;;;;;;;;10445261;28;20055;-88
2022/08/27 22:11:44;;;;;;;2.55;1.75;;;;;;;;;;10459795;28;20499;-89
2022/08/27 22:16:48;;;;;;;5.97;1.70;;;;;;;;;;10440196;28;20040;-89
2022/08/27 22:21:59;;;;;;;2.03;1.83;;;;;;;;;;10452009;28;20044;-88
2022/08/27 22:27:14;;;;;;;2.63;1.60;;;;;;;;;;10477947;28;20055;-88
2022/08/27 22:32:26;;;;;;;2.45;1.70;;;;;;;;;;10480142;28;20063;-89
2022/08/27 22:37:34;;;;;;;2.13;1.45;;;;;;;;;;10434401;28;20056;-88
2022/08/27 22:42:39;;;;;;;3.50;1.67;;;;;;;;;;10423094;28;20045;-89
2022/08/27 22:47:43;;;;;;;1.65;1.50;;;;;;;;;;10454870;28;20048;-88
2022/08/27 22:52:49;;;;;;;2.53;1.43;;;;;;;;;;10452936;28;20063;-89
2022/08/27 22:57:55;;;;;;;1.85;1.40;;;;;;;;;;10430962;28;20577;-89
2022/08/27 23:02:59;;;;;;;2.03;1.55;;;;;;;;;;10454477;28;20653;-89
2022/08/27 23:08:06;;;;;;;1.80;1.30;;;;;;;;;;10453759;28;20387;-88
2022/08/27 23:13:10;;;;;;;2.00;1.67;;;;;;;;;;10478181;28;20052;-90
2022/08/27 23:18:14;;;;;;;3.70;1.70;;;;;;;;;;10477911;28;20040;-90
2022/08/27 23:23:19;;;;;;;2.25;1.70;;;;;;;;;;10494982;28;20063;-89
2022/08/27 23:28:23;;;;;;;2.38;1.60;;;;;;;;;;10442323;28;20423;-89
2022/08/27 23:33:26;;;;;;;1.75;1.50;;;;;;;;;;10455406;28;20094;-89
2022/08/27 23:38:31;;;;;;;1.60;1.27;;;;;;;;;;10454325;28;20169;-90
2022/08/27 23:43:35;;;;;;;1.90;1.33;;;;;;;;;;10477052;28;20571;-89
2022/08/27 23:48:39;;;;;;;3.25;1.75;;;;;;;;;;10477169;28;20475;-89
2022/08/27 23:53:43;;;;;;;2.25;1.52;;;;;;;;;;10494440;28;20045;-90
2022/08/27 23:58:47;;;;;;;2.58;1.67;;;;;;;;;;10476012;28;20040;-89
